Homer, AK (99603)

2:16 AM AKST on February 13, 2016 (GMT -0900)
KAKHOMER5 | | Change Station
CLOSE
Current Station
Personal Weather Station
Location: Homer, AK
Elevation: 1152 ft
Nearby Weather Stations

Elev 1152 ft 59.67 °N, 151.49 °W | Updated 1 second ago

Overcast
Overcast
36.7 °F
Feels Like 33 °F
N
5.0
Wind Variable Wind from SE
Gusts 9.0 mph

Today
High -- | Low -- °F
--% Chance of Precip.
Yesterday
High -- | Low -- °F
Precip. -- in
Pressure 29.30 in
Visibility 10.0 miles
Clouds Mostly Cloudy 3600 ft
Overcast 10000 ft
Windchill 33 °F
Dew Point 34 °F
Humidity 89%
Rainfall 0.00 in
Snow Depth Not available.
8:48 AM 5:52 PM
Waxing Crescent, 29% visible
METAR PAHO 131053Z AUTO 00000KT 10SM BKN036 OVC100 03/01 A2929 RMK AO2 SLP921 T00280011 TSNO $
Pressure 29.30 in
Visibility 10.0 miles
Clouds Mostly Cloudy 3600 ft
Overcast 10000 ft
Windchill 33 °F
Dew Point 34 °F
Humidity 89%
Rainfall 0.00 in
Snow Depth Not available.
8:48 AM 5:52 PM
Waxing Crescent, 29% visible
METAR PAHO 131053Z AUTO 00000KT 10SM BKN036 OVC100 03/01 A2929 RMK AO2 SLP921 T00280011 TSNO $

10-Day Weather Forecast

Almanac

Astronomy

Feb. 13, 2016 Rise Set
Actual Time
Civil Twilight
Nautical Twilight
Astronomical Twilight
Moon
Length of Visible Light
Length of Day
Tomorrow will be .
, % of the Moon is Illuminated

Today's Extremes

State Highs State Lows

Community

WunderPhotos

Upload Photos

1,892,541 photos uploaded!

WunderBlog® & News

Nearby

Air Quality

  Air Quality AQ Index Pollutant
Not available.

Snow Depth

Station Depth Elevation

Earthquake Activity

City Distance Mag. Time & Date
Minimum magnitude displayed is 2.5.

Coastal Water Temperatures

Place Temperature

Stations

Nearby Weather Stations

Station Location Temp. Windchill Dew Point Humidity Wind Precip. Elev Updated Type
                   

Watches & Warnings

There are currently no watches in effect.